• Join FlightAware (Why Join?)
  • Login
  • US Flag 
01:22AM EDT


 

Airport Tracker/Info


-or-


 

Live Flight TrackerFlight Track Log ✈ DKT111 ✈ 07-May-2013 ✈ KFSD - KRAP

Flight Track Log - Related Links

Times and Time Zones

All times are in EDT time to prevent confusion due to time zone crossing. See the DKT111 flight status page for this flight to view local times or setup timezone preferences in your user account.

Time Position Orientation Groundspeed Altitude Reporting Facility
EDT Latitude Longitude Course Direction KTS MPH feet Rate Location/Type
08:18AM 43.6022 -96.8975 278° West 135 155 3,700  Level Minneapolis Center
08:19AM 43.6097 -96.9519 281° West 140 161 4,500 660 Climbing Minneapolis Center
08:20AM 43.6147 -97.0053 277° West 141 162 5,100 600 Climbing Minneapolis Center
08:21AM 43.6203 -97.0608 278° West 143 165 5,800 540 Climbing Minneapolis Center
08:22AM 43.6198 -97.1204 278° West  Level Estimated
08:22AM 43.6253 -97.1175 277° West 146 168 6,300  Level Minneapolis Center
08:23AM 43.6260 -97.1835 278° West  Level Estimated
08:23AM 43.6297 -97.1719 276° West 145 167 6,900  Level Minneapolis Center
08:24AM 43.6353 -97.2378 277° West 144 166 7,600 480 Climbing Minneapolis Center
08:25AM 43.6406 -97.2936 277° West 146 168 8,000 180 Climbing Minneapolis Center
08:26AM 43.6444 -97.3542 275° West 150 173 8,000  Level Minneapolis Center
08:27AM 43.6492 -97.4194 276° West 159 183 8,000  Level Minneapolis Center
08:28AM 43.6542 -97.4864 276° West 167 192 8,000  Level Minneapolis Center
08:29AM 43.6611 -97.5525 278° West 171 197 8,000  Level Minneapolis Center
08:30AM 43.6672 -97.6167 278° West 171 197 8,000  Level Minneapolis Center
08:31AM 43.6772 -97.6833 282° West 173 199 8,000  Level Minneapolis Center
08:32AM 43.6889 -97.7636 281° West 176 203 8,000  Level Minneapolis Center
08:33AM 43.6950 -97.8278 278° West 173 199 8,000  Level Minneapolis Center
08:34AM 43.7008 -97.8942 277° West 174 200 8,000  Level Minneapolis Center
08:35AM 43.7064 -97.9606 277° West 174 200 8,000  Level Minneapolis Center
08:36AM 43.7131 -98.0275 278° West 176 203 8,000  Level Minneapolis Center
08:37AM 43.7208 -98.0939 279° West 175 201 8,000  Level Minneapolis Center
08:38AM 43.7278 -98.1617 278° West 177 204 8,000  Level Minneapolis Center
08:39AM 43.7344 -98.2325 277° West 175 201 8,000  Level Minneapolis Center
08:40AM 43.7417 -98.2986 279° West 174 200 8,000  Level Minneapolis Center
08:41AM 43.7481 -98.3669 277° West 176 203 8,000  Level Minneapolis Center
08:42AM 43.7569 -98.4478 279° West 177 204 8,000  Level Minneapolis Center
08:43AM 43.7644 -98.5144 279° West 177 204 8,000  Level Minneapolis Center
08:44AM 43.7697 -98.5758 277° West 176 203 8,000  Level Minneapolis Center
08:45AM 43.7747 -98.6436 276° West 177 204 8,000  Level Minneapolis Center
08:46AM 43.7756 -98.7172 271° West 176 203 8,000  Level Minneapolis Center
08:47AM 43.7772 -98.7850 272° West 176 203 8,000  Level Minneapolis Center
08:48AM 43.7836 -98.8531 277° West 177 204 8,000  Level Minneapolis Center
08:49AM 43.7864 -98.9322 273° West 175 201 8,000  Level Minneapolis Center
08:51AM 43.7919 -98.9975 277° West 173 199 8,100 -60 Climbing Minneapolis Center
08:52AM 43.7997 -99.0650 279° West 175 201 7,900 -60 Descending Minneapolis Center
08:53AM 43.8053 -99.1322 277° West 176 203 8,000  Climbing Minneapolis Center
08:54AM 43.8106 -99.2006 276° West 177 204 8,000  Level Minneapolis Center
08:55AM 43.8167 -99.2831 276° West 178 205 8,000  Level Minneapolis Center
08:56AM 43.8200 -99.3519 274° West 179 206 8,000  Level Minneapolis Center
08:57AM 43.8225 -99.4183 273° West 177 204 8,000  Level Minneapolis Center
08:58AM 43.8278 -99.4842 276° West 175 201 8,000  Level Minneapolis Center
08:59AM 43.8342 -99.5653 276° West 175 201 8,000  Level Minneapolis Center
09:00AM 43.8400 -99.6328 277° West 176 203 8,000  Level Minneapolis Center
09:01AM 43.8450 -99.7003 276° West 176 203 8,000  Level Minneapolis Center
09:02AM 43.8525 -99.7678 279° West 176 203 8,000  Level Minneapolis Center
09:03AM 43.8583 -99.8353 277° West 177 204 8,000  Level Minneapolis Center
09:04AM 43.8650 -99.9028 278° West 177 204 8,000  Level Minneapolis Center
09:05AM 43.8706 -99.9708 276° West 177 204 8,000  Level Minneapolis Center
09:06AM 43.8756 -100.0397 276° West 178 205 8,000  Level Minneapolis Center
09:07AM 43.8792 -100.1083 274° West 178 205 8,000  Level Minneapolis Center
09:08AM 43.8856 -100.1897 276° West 178 205 8,000  Level Minneapolis Center
09:09AM 43.8897 -100.2594 275° West 178 205 8,000  Level Minneapolis Center
09:10AM 43.8944 -100.3283 275° West 179 206 8,000  Level Minneapolis Center
09:11AM 43.8983 -100.3981 274° West 180 207 8,000  Level Minneapolis Center
09:12AM 43.9017 -100.4675 274° West 180 207 8,000  Level Minneapolis Center
09:13AM 43.9083 -100.5383 277° West 182 209 8,000  Level Minneapolis Center
09:14AM 43.9144 -100.6072 277° West 182 209 8,000  Level Minneapolis Center
09:15AM 43.9192 -100.6753 276° West 181 208 8,000  Level Minneapolis Center
09:17AM 43.9247 -100.7442 276° West 179 206 8,000  Level Minneapolis Center
09:18AM 43.9336 -100.8425 277° West 181 208 8,000  Level Minneapolis Center
09:19AM 43.9386 -100.9128 276° West 183 211 8,000  Level Minneapolis Center
09:20AM 43.9442 -100.9831 276° West 183 211 8,000  Level Minneapolis Center
09:21AM 43.9472 -101.0525 274° West 183 211 8,000  Level Minneapolis Center
09:22AM 43.9511 -101.1242 274° West 183 211 8,000  Level Minneapolis Center
09:23AM 43.9558 -101.1944 275° West 184 212 8,000  Level Minneapolis Center
09:24AM 43.9592 -101.2628 274° West 182 209 8,000  Level Minneapolis Center
09:25AM 43.9622 -101.3364 273° West 181 208 8,000  Level Minneapolis Center
09:26AM 43.9617 -101.4064 269° West 184 212 8,000  Level Denver Center
09:27AM 43.9642 -101.4556 274° West 181 208 8,000  Level Denver Center
09:28AM 43.9658 -101.5267 272° West 181 208 8,000  Level Denver Center
09:29AM 43.9681 -101.5947 273° West 180 207 8,000  Level Denver Center
09:30AM 43.9733 -101.6797 275° West 181 208 8,000  Level Denver Center
09:31AM 43.9775 -101.7494 275° West 181 208 8,000  Level Denver Center
09:32AM 43.9819 -101.8183 275° West 180 207 8,000  Level Denver Center
09:32AM 43.9886 -101.8483 287° West 181 208 8,000  Level Denver Center
09:33AM 43.9875 -101.9028 268° West 181 208 8,000  Level Denver Center
09:33AM 43.9928 -101.9150 301° West 179 206 8,000  Level Denver Center
09:34AM 43.9917 -101.9628 268° West 181 208 8,000  Level Denver Center
09:34AM 43.9958 -101.9881 283° West 179 206 8,000  Level Denver Center
09:35AM 43.9986 -102.0608 273° West 179 206 8,000  Level Denver Center
09:36AM 44.0028 -102.1275 275° West 182 209 8,000  Level Denver Center
09:37AM 44.0097 -102.1994 278° West 182 209 8,000  Level Denver Center
09:38AM 44.0117 -102.2667 272° West 182 209 8,000  Level Denver Center
09:39AM 44.0150 -102.3203 275° West 155 178 8,000  Level Denver Center
09:40AM 44.0203 -102.3925 276° West 185 213 8,000 -60 Level Denver Center
09:41AM 44.0256 -102.4606 276° West 180 207 7,900 -240 Descending Denver Center
09:42AM 44.0314 -102.5328 276° West 183 211 7,600 -180 Descending Denver Center
09:43AM 43.9514 -102.6389 224° Southwest 244 281 7,600 -600 Level Denver Center
09:44AM 44.0514 -102.7097 333° Northwest 199 229 6,300 -900 Descending Denver Center
09:45AM 44.0583 -102.7844 277° West 200 230 5,700 -600 Descending Denver Center
09:46AM 44.0656 -102.8619 277° West 194 223 5,100 -600 Descending Denver Center
09:47AM 44.0711 -102.9281 277° West 186 214 4,600 -480 Descending Denver Center
09:48AM 44.0792 -102.9967 279° West 171 197 4,200 -420 Descending Denver Center
09:49AM 44.0781 -103.0472 268° West 140 161 3,800 -420 Descending Denver Center
09:51AM 44.0453 -103.0574 270° West  Level Estimated
09:58AM 44.0453 -103.0574 270° West  Level Estimated
09:59AM 44.0453 -103.0574 270° West  Level Estimated